KTLH METAR and TAF | Updated Today

KTLH METAR

Tallahassee Regional Airport

Observation time: 4 min. ago

KTLH 292253Z 32005KT 10SM CLR 14/M04 A3009 RMK AO2 SLP189 T01441044

Need help? Read our tutorial on how to read METARs or read the parsed version below.

Tallahassee Regional Airport (KTLH) METAR

  • Weather conditions on Mon, 29 Nov 2021 22:53:00 +0000 (4 min. ago):
  • Present conditions: Dry
  • Clouds: Clear skies
  • Visibility: 16093 meters
  • Wind: 320 degrees at 5 knots
  • Temperature: 14 celsius
  • Dew point: -4 celsius
  • Pressure: 30.09 inHg
  • Remarks: AO2 SLP189 T01441044


Useful to know...

KTLH TAF

Tallahassee Regional Airport

KTLH 291726Z 2918/3018 32007KT P6SM SKC FM300000 00000KT P6SM SKC FM301400 VRB03KT P6SM SKC
Observation time: 5:31 hr. ago
Need help? Read our tutorial on how to read TAFs or read the parsed version below.

Parsed version of TAF for Tallahassee Regional Airport (KTLH)

  • From 29 November at 18:00 UTC, to day 30 of the month at 18:00 UTC
  • Clouds: No significant changes expected
  • Wind: 320 degrees at 7
  • From day 30 of the month at 00:00 UTC
  • Clouds: No significant changes expected
  • From day 30 of the month at 14:00 UTC
  • Clouds: No significant changes expected
  • Wind: Variable at 3

Airports near KTLH

KBGE Weather
Region: Bainbridge

Decatur County Industrial Air Park

Not found in our database
KTVI Weather
Region: Thomasville

Thomasville Regional Airport

Not found in our database